createdAt,value
2016-12-13T00:00:28.304Z,92.03
2016-12-13T00:00:56.120Z,92.51
2016-12-13T00:01:23.939Z,92.51
2016-12-13T00:01:51.798Z,93.19
2016-12-13T00:02:19.832Z,92.61
2016-12-13T00:02:47.688Z,92.61
2016-12-13T00:03:15.525Z,92.51
2016-12-13T00:03:43.417Z,92.51
2016-12-13T00:04:11.255Z,92.8
2016-12-13T00:04:39.186Z,92.32
2016-12-13T00:05:07.076Z,92.51
2016-12-13T00:05:34.887Z,92.13
2016-12-13T00:06:02.732Z,91.83
2016-12-13T00:06:30.580Z,92.03
2016-12-13T00:06:58.658Z,92.03
2016-12-13T00:07:26.465Z,91.74
2016-12-13T00:07:54.434Z,91.45
2016-12-13T00:08:22.332Z,91.74
2016-12-13T00:08:50.289Z,92.03
2016-12-13T00:09:18.145Z,91.83
2016-12-13T00:09:46.005Z,91.64
2016-12-13T00:10:13.805Z,92.22
2016-12-13T00:10:41.618Z,91.83
2016-12-13T00:11:09.641Z,91.93
2016-12-13T00:11:37.597Z,92.22
2016-12-13T00:12:05.672Z,91.45
2016-12-13T00:12:33.571Z,91.36
2016-12-13T00:13:01.453Z,91.36
2016-12-13T00:13:29.350Z,91.55
2016-12-13T00:13:57.180Z,92.03
2016-12-13T00:14:25.108Z,91.83
2016-12-13T00:14:52.982Z,91.83
2016-12-13T00:15:20.910Z,91.83
2016-12-13T00:15:48.779Z,91.88
2016-12-13T00:16:16.802Z,91.83
2016-12-13T00:16:44.647Z,91.93
2016-12-13T00:17:12.705Z,91.55
2016-12-13T00:17:40.579Z,91.4
2016-12-13T00:18:08.433Z,91.45
2016-12-13T00:18:36.354Z,91.5
2016-12-13T00:19:04.311Z,90.82
2016-12-13T00:19:32.168Z,91.06
2016-12-13T00:20:00.082Z,91.2
2016-12-13T00:20:28.136Z,91.16
2016-12-13T00:20:55.962Z,91.64
2016-12-13T00:21:23.825Z,91.55
2016-12-13T00:21:51.680Z,91.45
2016-12-13T00:22:19.759Z,91.55
2016-12-13T00:22:47.612Z,91.64
2016-12-13T00:23:15.714Z,91.45
2016-12-13T00:23:43.638Z,91.93
2016-12-13T00:24:11.504Z,91.55
2016-12-13T00:24:39.368Z,91.74
2016-12-13T00:25:07.271Z,91.6
2016-12-13T00:25:35.127Z,91.64
2016-12-13T00:26:02.970Z,92.03
2016-12-13T00:26:30.905Z,91.5
2016-12-13T00:26:58.801Z,91.78
2016-12-13T00:27:27.084Z,91.6
2016-12-13T00:27:54.949Z,91.3
2016-12-13T00:28:22.807Z,91.88
2016-12-13T00:28:50.645Z,91.69
2016-12-13T00:29:18.517Z,91.78
2016-12-13T00:29:46.378Z,91.4
2016-12-13T00:30:14.217Z,91.5
2016-12-13T00:30:42.030Z,91.6
2016-12-13T00:31:10.081Z,91.6
2016-12-13T00:31:37.910Z,91.98
2016-12-13T00:32:05.974Z,91.69
2016-12-13T00:32:33.917Z,91.11
2016-12-13T00:33:01.726Z,91.2
2016-12-13T00:33:29.660Z,91.4
2016-12-13T00:33:57.575Z,91.2
2016-12-13T00:34:25.516Z,91.5
2016-12-13T00:34:53.343Z,91.2
2016-12-13T00:35:21.174Z,91.02
2016-12-13T00:35:49.051Z,90.92
2016-12-13T00:36:16.931Z,90.92
2016-12-13T00:36:44.797Z,91.11
2016-12-13T00:37:12.924Z,90.82
2016-12-13T00:37:40.817Z,91.2
2016-12-13T00:38:08.702Z,91.11
2016-12-13T00:38:36.524Z,91.2
2016-12-13T00:39:04.341Z,91.3
2016-12-13T00:39:32.226Z,91.2
2016-12-13T00:40:00.026Z,91.02
2016-12-13T00:40:27.971Z,91.2
2016-12-13T00:40:55.846Z,91.3
2016-12-13T00:41:23.700Z,91.02
2016-12-13T00:41:51.564Z,91.02
2016-12-13T00:42:19.612Z,91.11
2016-12-13T00:42:47.464Z,91.2
2016-12-13T00:43:15.286Z,91.2
2016-12-13T00:43:43.138Z,91.3
2016-12-13T00:44:10.986Z,91.02
2016-12-13T00:44:38.864Z,91.2
2016-12-13T00:45:06.706Z,91.3
2016-12-13T00:45:34.524Z,91.3
2016-12-13T00:46:02.384Z,91.2
2016-12-13T00:46:30.214Z,91.2
2016-12-13T00:46:58.037Z,91.3
2016-12-13T00:47:26.106Z,91.4
2016-12-13T00:47:54.009Z,91.4
2016-12-13T00:48:21.844Z,91.3
2016-12-13T00:48:49.710Z,91.2
2016-12-13T00:49:17.555Z,91.4
2016-12-13T00:49:45.409Z,91.11
2016-12-13T00:50:13.200Z,91.3
2016-12-13T00:50:41.012Z,91.02
2016-12-13T00:51:08.880Z,90.72
2016-12-13T00:51:36.704Z,91.5
2016-12-13T00:52:04.537Z,91.02
2016-12-13T00:52:32.566Z,90.92
2016-12-13T00:53:00.449Z,91.4
2016-12-13T00:53:28.235Z,91.2
2016-12-13T00:53:56.045Z,90.92
2016-12-13T00:54:23.862Z,91.3
2016-12-13T00:54:51.701Z,90.92
2016-12-13T00:55:19.632Z,90.82
2016-12-13T00:55:47.464Z,91.02
2016-12-13T00:56:15.379Z,91.11
2016-12-13T00:56:43.187Z,91.2
2016-12-13T00:57:10.989Z,91.11
2016-12-13T00:57:39.149Z,91.2
2016-12-13T00:58:07.167Z,91.3
2016-12-13T00:58:35.036Z,91.4
2016-12-13T00:59:02.992Z,91.2
2016-12-13T00:59:30.857Z,91.4
2016-12-13T00:59:58.633Z,91.3
2016-12-13T01:00:26.518Z,90.92
2016-12-13T01:00:54.482Z,91.2
2016-12-13T01:01:22.357Z,91.11
2016-12-13T01:01:50.192Z,91.11
2016-12-13T01:02:18.303Z,90.72
2016-12-13T01:02:46.167Z,90.63
2016-12-13T01:03:14.050Z,91.11
2016-12-13T01:03:42.020Z,91.3
2016-12-13T01:04:09.921Z,90.92
2016-12-13T01:04:37.842Z,91.11
2016-12-13T01:05:05.725Z,91.5
2016-12-13T01:05:33.689Z,91.3
2016-12-13T01:06:01.457Z,90.92
2016-12-13T01:06:29.244Z,91.02
2016-12-13T01:06:57.100Z,91.06
2016-12-13T01:07:25.126Z,90.87
2016-12-13T01:07:52.969Z,90.92
2016-12-13T01:08:20.843Z,90.92
2016-12-13T01:08:48.724Z,90.44
2016-12-13T01:09:16.558Z,90.63
2016-12-13T01:09:44.330Z,91.3
2016-12-13T01:10:12.207Z,91.02
2016-12-13T01:10:40.019Z,91.5
2016-12-13T01:11:07.897Z,90.92
2016-12-13T01:11:35.836Z,90.92
2016-12-13T01:12:03.658Z,90.92
2016-12-13T01:12:31.699Z,90.92
2016-12-13T01:12:59.609Z,90.72
2016-12-13T01:13:27.452Z,90.92
2016-12-13T01:13:55.334Z,90.82
2016-12-13T01:14:23.192Z,91.5
2016-12-13T01:14:51.045Z,91.3
2016-12-13T01:15:18.902Z,90.92
2016-12-13T01:15:46.767Z,90.92
2016-12-13T01:16:14.609Z,90.72
2016-12-13T01:16:42.650Z,91.02
2016-12-13T01:17:10.511Z,91.02
2016-12-13T01:17:38.563Z,90.92
2016-12-13T01:18:06.456Z,90.92
2016-12-13T01:18:34.308Z,90.92
2016-12-13T01:19:02.138Z,91.3
2016-12-13T01:19:30.001Z,90.92
2016-12-13T01:19:57.934Z,91.11
2016-12-13T01:20:25.820Z,90.92
2016-12-13T01:20:53.671Z,90.82
2016-12-13T01:21:21.504Z,90.72
2016-12-13T01:21:49.313Z,91.3
2016-12-13T01:22:17.195Z,91.11
2016-12-13T01:22:45.271Z,91.02
2016-12-13T01:23:13.086Z,91.6
2016-12-13T01:23:40.958Z,91.2
2016-12-13T01:24:08.897Z,91.2
2016-12-13T01:24:36.823Z,91.3
2016-12-13T01:25:04.688Z,91.11
2016-12-13T01:25:32.561Z,91.11
2016-12-13T01:26:00.524Z,91.3
2016-12-13T01:26:28.362Z,91.4
2016-12-13T01:26:56.236Z,91.3
2016-12-13T01:27:24.352Z,90.96
2016-12-13T01:27:52.252Z,91.02
2016-12-13T01:28:20.050Z,90.92
2016-12-13T01:28:47.940Z,90.72
2016-12-13T01:29:15.803Z,91.2
2016-12-13T01:29:43.643Z,91.02
2016-12-13T01:30:11.497Z,91.2
2016-12-13T01:30:39.358Z,91.25
2016-12-13T01:31:07.284Z,90.72
2016-12-13T01:31:35.122Z,90.92
2016-12-13T01:32:03.057Z,91.11
2016-12-13T01:32:31.098Z,91.4
2016-12-13T01:32:58.960Z,91.25
2016-12-13T01:33:26.814Z,90.72
2016-12-13T01:33:54.656Z,91.3
2016-12-13T01:34:22.519Z,91.2
2016-12-13T01:34:50.391Z,91.11
2016-12-13T01:35:18.229Z,91.2
2016-12-13T01:35:46.062Z,91.78
2016-12-13T01:36:13.902Z,90.82
2016-12-13T01:36:41.762Z,91.69
2016-12-13T01:37:09.616Z,91.88
2016-12-13T01:37:37.735Z,91.6
2016-12-13T01:38:05.633Z,91.6
2016-12-13T01:38:33.619Z,90.82
2016-12-13T01:39:01.476Z,91.6
2016-12-13T01:39:29.388Z,91.2
2016-12-13T01:39:57.283Z,91.2
2016-12-13T01:40:25.218Z,91.2
2016-12-13T01:40:53.059Z,91.3
2016-12-13T01:41:20.926Z,91.02
2016-12-13T01:41:48.753Z,90.82
2016-12-13T01:42:16.718Z,91.69
2016-12-13T01:42:44.826Z,91.6
2016-12-13T01:43:12.642Z,91.69
2016-12-13T01:43:40.415Z,91.3
2016-12-13T01:44:08.376Z,91.69
2016-12-13T01:44:36.221Z,91.78
2016-12-13T01:45:04.050Z,91.02
2016-12-13T01:45:31.890Z,91.2
2016-12-13T01:45:59.829Z,91.11
2016-12-13T01:46:27.689Z,91.02
2016-12-13T01:46:55.537Z,91.3
2016-12-13T01:47:23.366Z,91.2
2016-12-13T01:47:51.400Z,91.11
2016-12-13T01:48:19.257Z,91.3
2016-12-13T01:48:47.089Z,91.5
2016-12-13T01:49:14.896Z,91.88
2016-12-13T01:49:42.761Z,91.88
2016-12-13T01:50:10.640Z,91.4
2016-12-13T01:50:38.508Z,91.69
2016-12-13T01:51:06.411Z,91.6
2016-12-13T01:51:34.239Z,91.69
2016-12-13T01:52:02.102Z,92.36
2016-12-13T01:52:30.239Z,91.88
2016-12-13T01:52:58.111Z,92.08
2016-12-13T01:53:25.973Z,91.98
2016-12-13T01:53:53.766Z,92.17
2016-12-13T01:54:21.620Z,92.17
2016-12-13T01:54:49.548Z,91.98
2016-12-13T01:55:17.415Z,91.78
2016-12-13T01:55:45.341Z,92.13
2016-12-13T01:56:13.252Z,92.56
2016-12-13T01:56:41.141Z,92.65
2016-12-13T01:57:09.098Z,92.27
2016-12-13T01:57:37.131Z,92.36
2016-12-13T01:58:04.954Z,92.46
2016-12-13T01:58:32.798Z,92.85
2016-12-13T01:59:00.643Z,92.65
2016-12-13T01:59:28.497Z,92.85
2016-12-13T01:59:56.347Z,92.46
2016-12-13T02:00:24.288Z,91.98
2016-12-13T02:00:52.233Z,92.46
2016-12-13T02:01:20.090Z,92.27
2016-12-13T02:01:47.930Z,92.08
2016-12-13T02:02:15.809Z,91.88
2016-12-13T02:02:43.868Z,92.36
2016-12-13T02:03:11.699Z,91.78
2016-12-13T02:03:39.566Z,91.88
2016-12-13T02:04:07.532Z,91.98
2016-12-13T02:04:35.526Z,91.88
2016-12-13T02:05:03.388Z,91.88
2016-12-13T02:05:31.296Z,91.98
2016-12-13T02:05:59.143Z,91.69
2016-12-13T02:06:27.016Z,92.08
2016-12-13T02:06:54.957Z,91.88
2016-12-13T02:07:22.904Z,91.88
2016-12-13T02:07:50.965Z,91.88
2016-12-13T02:08:18.827Z,91.78
2016-12-13T02:08:46.695Z,91.5
2016-12-13T02:09:14.554Z,91.78
2016-12-13T02:09:42.414Z,91.78
2016-12-13T02:10:10.302Z,91.4
2016-12-13T02:10:38.196Z,91.6
2016-12-13T02:11:05.982Z,91.3
2016-12-13T02:11:33.789Z,91.4
2016-12-13T02:12:01.637Z,91.6
2016-12-13T02:12:29.445Z,91.4
2016-12-13T02:12:57.500Z,91.5
2016-12-13T02:13:25.392Z,91.4
2016-12-13T02:13:53.240Z,91.6
2016-12-13T02:14:21.089Z,91.6
2016-12-13T02:14:48.939Z,91.6
2016-12-13T02:15:16.833Z,91.74
2016-12-13T02:15:44.688Z,90.92
2016-12-13T02:16:12.562Z,91.11
2016-12-13T02:16:40.391Z,91.2
2016-12-13T02:17:08.235Z,91.35
2016-12-13T02:17:36.048Z,91.16
2016-12-13T02:18:04.109Z,90.96
2016-12-13T02:18:31.946Z,91.25
2016-12-13T02:18:59.811Z,91.16
2016-12-13T02:19:27.623Z,91.16
2016-12-13T02:19:55.445Z,90.92
2016-12-13T02:20:23.302Z,91.35
2016-12-13T02:20:51.170Z,90.58
2016-12-13T02:21:19.002Z,90.58
2016-12-13T02:21:46.852Z,91.25
2016-12-13T02:22:14.769Z,91.06
2016-12-13T02:22:42.804Z,91.06
2016-12-13T02:23:10.658Z,90.82
2016-12-13T02:23:38.512Z,90.96
2016-12-13T02:24:06.424Z,91.35
2016-12-13T02:24:34.230Z,91.35
2016-12-13T02:25:02.050Z,91.3
2016-12-13T02:25:29.880Z,91.35
2016-12-13T02:25:57.707Z,91.02
2016-12-13T02:26:25.564Z,91.11
2016-12-13T02:26:53.413Z,91.25
2016-12-13T02:27:21.279Z,91.25
2016-12-13T02:27:49.382Z,91.06
2016-12-13T02:28:17.255Z,90.77
2016-12-13T02:28:45.141Z,91.2
2016-12-13T02:29:12.989Z,91.35
2016-12-13T02:29:40.840Z,91.16
2016-12-13T02:30:08.689Z,91.35
2016-12-13T02:30:36.661Z,91.02
2016-12-13T02:31:04.626Z,91.2
2016-12-13T02:31:32.500Z,90.82
2016-12-13T02:32:00.406Z,91.3
2016-12-13T02:32:28.216Z,91.78
2016-12-13T02:32:56.327Z,91.69
2016-12-13T02:33:24.204Z,91.69
2016-12-13T02:33:52.023Z,91.2
2016-12-13T02:34:20.016Z,91.2
2016-12-13T02:34:47.835Z,91.35
2016-12-13T02:35:15.691Z,91.2
2016-12-13T02:35:43.537Z,91.2
2016-12-13T02:36:11.514Z,91.11
2016-12-13T02:36:39.474Z,90.92
2016-12-13T02:37:07.331Z,91.06
2016-12-13T02:37:35.120Z,91.06
2016-12-13T02:38:03.161Z,91.25
2016-12-13T02:38:31.010Z,91.02
2016-12-13T02:38:58.832Z,91.11
2016-12-13T02:39:26.646Z,91.06
2016-12-13T02:39:54.480Z,91.11
2016-12-13T02:40:22.286Z,91.02
2016-12-13T02:40:50.115Z,91.25
2016-12-13T02:41:17.955Z,91.11
2016-12-13T02:41:45.805Z,91.44
2016-12-13T02:42:13.611Z,91.25
2016-12-13T02:42:41.476Z,91.11
2016-12-13T02:43:09.564Z,91.25
2016-12-13T02:43:37.419Z,91.25
2016-12-13T02:44:05.229Z,90.77
2016-12-13T02:44:33.067Z,91.3
2016-12-13T02:45:00.878Z,91.25
2016-12-13T02:45:28.726Z,91.02
2016-12-13T02:45:56.554Z,91.06
2016-12-13T02:46:24.371Z,91.02
2016-12-13T02:46:52.242Z,90.77
2016-12-13T02:47:20.068Z,90.96
2016-12-13T02:47:48.122Z,90.87
2016-12-13T02:48:15.962Z,91.16
2016-12-13T02:48:43.837Z,91.06
2016-12-13T02:49:11.803Z,91.16
2016-12-13T02:49:39.708Z,91.16
2016-12-13T02:50:07.616Z,91.16
2016-12-13T02:50:35.545Z,91.25
2016-12-13T02:51:03.363Z,90.96
2016-12-13T02:51:31.198Z,91.35
2016-12-13T02:51:59.031Z,91.35
2016-12-13T02:52:26.888Z,90.77
2016-12-13T02:52:54.943Z,91.25
2016-12-13T02:53:22.836Z,91.35
2016-12-13T02:53:50.647Z,91.2
2016-12-13T02:54:18.514Z,91.25
2016-12-13T02:54:46.390Z,90.77
2016-12-13T02:55:14.272Z,90.72
2016-12-13T02:55:42.154Z,90.77
2016-12-13T02:56:10.008Z,90.96
2016-12-13T02:56:37.902Z,91.06
2016-12-13T02:57:05.743Z,91.11
2016-12-13T02:57:33.674Z,91.11
2016-12-13T02:58:01.773Z,91.06
2016-12-13T02:58:29.577Z,91.16
2016-12-13T02:58:57.405Z,91.16
2016-12-13T02:59:25.261Z,90.77
2016-12-13T02:59:53.136Z,90.77
2016-12-13T03:00:20.992Z,91.11
2016-12-13T03:00:48.817Z,91.44
2016-12-13T03:01:16.682Z,91.25
2016-12-13T03:01:44.616Z,91.3
2016-12-13T03:02:12.461Z,91.35
2016-12-13T03:02:40.340Z,91.11
2016-12-13T03:03:08.418Z,91.16
2016-12-13T03:03:36.246Z,90.96
2016-12-13T03:04:04.101Z,90.92
2016-12-13T03:04:31.956Z,91.25
2016-12-13T03:04:59.850Z,91.35
2016-12-13T03:05:27.634Z,90.77
2016-12-13T03:05:55.498Z,91.06
2016-12-13T03:06:23.323Z,90.96
2016-12-13T03:06:51.120Z,90.77
2016-12-13T03:07:18.983Z,90.38
2016-12-13T03:07:46.811Z,90.77
2016-12-13T03:08:14.893Z,91.11
2016-12-13T03:08:42.732Z,90.96
2016-12-13T03:09:10.597Z,91.25
2016-12-13T03:09:38.459Z,91.11
2016-12-13T03:10:06.406Z,91.25
2016-12-13T03:10:34.282Z,90.92
2016-12-13T03:11:02.137Z,91.11
2016-12-13T03:11:30.089Z,91.16
2016-12-13T03:11:57.940Z,91.02
2016-12-13T03:12:25.753Z,91.11
2016-12-13T03:12:53.599Z,91.5
2016-12-13T03:13:21.873Z,91.35
2016-12-13T03:13:49.741Z,91.54
2016-12-13T03:14:17.620Z,91.6
2016-12-13T03:14:45.483Z,91.69
2016-12-13T03:15:13.375Z,91.02
2016-12-13T03:15:41.211Z,91.25
2016-12-13T03:16:09.089Z,90.92
2016-12-13T03:16:36.951Z,91.74
2016-12-13T03:17:04.792Z,92.02
2016-12-13T03:17:32.596Z,91.69
2016-12-13T03:18:00.656Z,91.74
2016-12-13T03:18:28.566Z,91.83
2016-12-13T03:18:56.478Z,91.83
2016-12-13T03:19:24.317Z,91.83
2016-12-13T03:19:52.134Z,91.4
2016-12-13T03:20:19.962Z,91.6
2016-12-13T03:20:47.830Z,91.64
2016-12-13T03:21:15.699Z,91.93
2016-12-13T03:21:43.575Z,91.64
2016-12-13T03:22:11.407Z,91.69
2016-12-13T03:22:39.249Z,91.74
2016-12-13T03:23:07.305Z,91.83
2016-12-13T03:23:35.215Z,91.69
2016-12-13T03:24:03.092Z,91.83
2016-12-13T03:24:30.927Z,91.06
2016-12-13T03:24:58.751Z,91.35
2016-12-13T03:25:26.595Z,91.6
2016-12-13T03:25:54.443Z,91.78
2016-12-13T03:26:22.307Z,90.96
2016-12-13T03:26:50.216Z,91.16
2016-12-13T03:27:18.060Z,91.69
2016-12-13T03:27:45.857Z,91.74
2016-12-13T03:28:13.889Z,91.69
2016-12-13T03:28:41.820Z,91.54
2016-12-13T03:29:09.667Z,91.64
2016-12-13T03:29:37.544Z,91.74
2016-12-13T03:30:05.444Z,90.82
2016-12-13T03:30:33.284Z,91.11
2016-12-13T03:31:01.113Z,91.16
2016-12-13T03:31:28.921Z,90.87
2016-12-13T03:31:56.839Z,91.78
2016-12-13T03:32:24.775Z,91.83
2016-12-13T03:32:52.593Z,91.93
2016-12-13T03:33:20.609Z,91.74
2016-12-13T03:33:48.442Z,91.25
2016-12-13T03:34:16.330Z,91.11
2016-12-13T03:34:44.181Z,91.06
2016-12-13T03:35:12.063Z,91.74
2016-12-13T03:35:39.902Z,91.5
2016-12-13T03:36:07.699Z,91.93
2016-12-13T03:36:35.567Z,92.02
2016-12-13T03:37:03.368Z,92.41
2016-12-13T03:37:31.253Z,92.22
2016-12-13T03:37:59.090Z,92.32
2016-12-13T03:38:27.125Z,92.32
2016-12-13T03:38:54.980Z,91.83
2016-12-13T03:39:22.822Z,91.98
2016-12-13T03:39:50.657Z,91.93
2016-12-13T03:40:18.498Z,91.69
2016-12-13T03:40:46.545Z,91.2
2016-12-13T03:41:14.396Z,91.54
2016-12-13T03:41:42.270Z,91.54
2016-12-13T03:42:10.094Z,91.25
2016-12-13T03:42:37.921Z,91.25
2016-12-13T03:43:05.903Z,91.25
2016-12-13T03:43:33.722Z,91.2
2016-12-13T03:44:01.562Z,91.06
2016-12-13T03:44:29.438Z,91.35
2016-12-13T03:44:57.284Z,91.5
2016-12-13T03:45:25.123Z,91.78
2016-12-13T03:45:52.976Z,91.83
2016-12-13T03:46:20.826Z,91.88
2016-12-13T03:46:48.770Z,91.83
2016-12-13T03:47:16.597Z,91.83
2016-12-13T03:47:44.508Z,91.6
2016-12-13T03:48:12.563Z,91.74
2016-12-13T03:48:40.507Z,91.35
2016-12-13T03:49:08.415Z,91.64
2016-12-13T03:49:36.247Z,91.44
2016-12-13T03:50:04.057Z,91.64
2016-12-13T03:50:31.938Z,91.74
2016-12-13T03:50:59.791Z,91.44
2016-12-13T03:51:27.605Z,91.64
2016-12-13T03:51:55.447Z,91.35
2016-12-13T03:52:23.259Z,90.87
2016-12-13T03:52:51.113Z,91.25
2016-12-13T03:53:19.162Z,91.25
2016-12-13T03:53:47.027Z,91.06
2016-12-13T03:54:14.874Z,91.16
2016-12-13T03:54:42.715Z,91.16
2016-12-13T03:55:10.536Z,91.25
2016-12-13T03:55:38.363Z,91.35
2016-12-13T03:56:06.158Z,91.25
2016-12-13T03:56:33.968Z,91.06
2016-12-13T03:57:01.873Z,91.25
2016-12-13T03:57:29.709Z,91.25
2016-12-13T03:57:57.505Z,90.96
2016-12-13T03:58:25.527Z,91.25
2016-12-13T03:58:53.379Z,91.35
2016-12-13T03:59:21.261Z,91.16
2016-12-13T03:59:49.228Z,91.35
2016-12-13T04:00:17.211Z,91.16
2016-12-13T04:00:45.107Z,91.25
2016-12-13T04:01:12.932Z,91.35
2016-12-13T04:01:40.831Z,91.35
2016-12-13T04:02:08.650Z,91.16
2016-12-13T04:02:36.461Z,91.06
2016-12-13T04:03:04.369Z,91.25
2016-12-13T04:03:32.525Z,91.25
2016-12-13T04:04:00.351Z,91.16
2016-12-13T04:04:28.272Z,91.25
2016-12-13T04:04:56.075Z,91.16
2016-12-13T04:05:23.941Z,91.5
2016-12-13T04:05:51.859Z,91.06
2016-12-13T04:06:19.672Z,90.87
2016-12-13T04:06:47.501Z,91.64
2016-12-13T04:07:15.305Z,91.78
2016-12-13T04:07:43.176Z,91.6
2016-12-13T04:08:11.311Z,91.93
2016-12-13T04:08:39.181Z,92.12
2016-12-13T04:09:06.990Z,91.78
2016-12-13T04:09:34.901Z,92.08
2016-12-13T04:10:02.735Z,92.02
2016-12-13T04:10:30.614Z,91.93
2016-12-13T04:10:58.452Z,91.74
2016-12-13T04:11:26.318Z,92.12
2016-12-13T04:11:54.148Z,92.08
2016-12-13T04:12:21.938Z,91.6
2016-12-13T04:12:49.787Z,91.93
2016-12-13T04:13:17.828Z,91.83
2016-12-13T04:13:45.706Z,92.02
2016-12-13T04:14:13.587Z,92.22
2016-12-13T04:14:41.443Z,91.88
2016-12-13T04:15:09.262Z,91.93
2016-12-13T04:15:37.084Z,91.93
2016-12-13T04:16:04.949Z,91.83
2016-12-13T04:16:32.795Z,91.93
2016-12-13T04:17:00.664Z,92.12
2016-12-13T04:17:28.670Z,92.02
2016-12-13T04:17:56.496Z,92.22
2016-12-13T04:18:24.590Z,91.74
2016-12-13T04:18:52.463Z,91.74
2016-12-13T04:19:20.327Z,92.12
2016-12-13T04:19:48.188Z,91.93
2016-12-13T04:20:16.017Z,92.22
2016-12-13T04:20:43.945Z,92.7
2016-12-13T04:21:11.772Z,92.32
2016-12-13T04:21:39.647Z,92.32
2016-12-13T04:22:07.488Z,92.27
2016-12-13T04:22:35.334Z,92.27
2016-12-13T04:23:03.258Z,92.6
2016-12-13T04:23:31.362Z,92.75
2016-12-13T04:23:59.194Z,92.94
2016-12-13T04:24:27.101Z,92.85
2016-12-13T04:24:54.925Z,92.6
2016-12-13T04:25:22.769Z,92.7
2016-12-13T04:25:50.639Z,92.41
2016-12-13T04:26:18.440Z,92.41
2016-12-13T04:26:46.389Z,92.22
2016-12-13T04:27:14.200Z,92.32
2016-12-13T04:27:42.046Z,92.32
2016-12-13T04:28:09.981Z,92.22
2016-12-13T04:28:38.015Z,92.27
2016-12-13T04:29:05.905Z,91.93
2016-12-13T04:29:33.713Z,92.02
2016-12-13T04:30:01.576Z,92.41
2016-12-13T04:30:29.421Z,92.56
2016-12-13T04:30:57.286Z,92.8
2016-12-13T04:31:25.084Z,92.8
2016-12-13T04:31:52.958Z,92.7
2016-12-13T04:32:20.781Z,92.22
2016-12-13T04:32:48.642Z,92.17
2016-12-13T04:33:16.487Z,92.41
2016-12-13T04:33:44.641Z,92.41
2016-12-13T04:34:12.506Z,92.22
2016-12-13T04:34:40.374Z,92.22
2016-12-13T04:35:08.220Z,92.02
2016-12-13T04:35:36.079Z,92.41
2016-12-13T04:36:03.933Z,91.83
2016-12-13T04:36:31.792Z,92.32
2016-12-13T04:36:59.567Z,92.32
2016-12-13T04:37:27.460Z,91.98
2016-12-13T04:37:55.332Z,92.32
2016-12-13T04:38:23.412Z,92.32
2016-12-13T04:38:51.241Z,92.6
2016-12-13T04:39:19.143Z,92.32
2016-12-13T04:39:47.124Z,92.36
2016-12-13T04:40:14.991Z,92.22
2016-12-13T04:40:42.850Z,91.98
2016-12-13T04:41:10.715Z,92.27
2016-12-13T04:41:38.545Z,92.32
2016-12-13T04:42:06.417Z,92.32
2016-12-13T04:42:34.257Z,91.78
2016-12-13T04:43:02.067Z,91.78
2016-12-13T04:43:30.115Z,91.98
2016-12-13T04:43:57.942Z,92.22
2016-12-13T04:44:25.823Z,92.08
2016-12-13T04:44:53.675Z,92.27
2016-12-13T04:45:21.496Z,92.85
2016-12-13T04:45:49.391Z,92.6
2016-12-13T04:46:17.244Z,92.32
2016-12-13T04:46:45.063Z,92.46
2016-12-13T04:47:12.896Z,92.46
2016-12-13T04:47:40.725Z,92.7
2016-12-13T04:48:08.678Z,92.7
2016-12-13T04:48:36.726Z,92.46
2016-12-13T04:49:04.568Z,92.46
2016-12-13T04:49:32.372Z,92.27
2016-12-13T04:50:00.177Z,92.36
2016-12-13T04:50:28.000Z,92.36
2016-12-13T04:50:55.875Z,92.75
2016-12-13T04:51:23.721Z,93.04
2016-12-13T04:51:51.586Z,92.75
2016-12-13T04:52:19.508Z,92.85
2016-12-13T04:52:47.401Z,92.75
2016-12-13T04:53:15.259Z,92.56
2016-12-13T04:53:43.341Z,92.94
2016-12-13T04:54:11.124Z,92.56
2016-12-13T04:54:38.918Z,92.65
2016-12-13T04:55:06.759Z,92.94
2016-12-13T04:55:34.660Z,92.85
2016-12-13T04:56:02.507Z,92.75
2016-12-13T04:56:30.352Z,92.65
2016-12-13T04:56:58.224Z,92.89
2016-12-13T04:57:26.031Z,92.89
2016-12-13T04:57:53.836Z,92.41
2016-12-13T04:58:21.697Z,92.7
2016-12-13T04:58:49.733Z,92.7
2016-12-13T04:59:17.542Z,92.27
2016-12-13T04:59:45.409Z,92.6
2016-12-13T05:00:13.294Z,92.32
2016-12-13T05:00:41.125Z,92.5
2016-12-13T05:01:08.993Z,92.41
2016-12-13T05:01:36.829Z,92.32
2016-12-13T05:02:04.696Z,92.46
2016-12-13T05:02:32.496Z,92.46
2016-12-13T05:03:00.317Z,92.22
2016-12-13T05:03:28.310Z,92.12
2016-12-13T05:03:56.153Z,92.32
2016-12-13T05:04:23.978Z,92.22
2016-12-13T05:04:51.847Z,92.12
2016-12-13T05:05:19.709Z,92.02
2016-12-13T05:05:47.569Z,92.32
2016-12-13T05:06:15.391Z,92.02
2016-12-13T05:06:43.264Z,92.02
2016-12-13T05:07:11.137Z,92.27
2016-12-13T05:07:39.036Z,91.98
2016-12-13T05:08:06.851Z,92.56
2016-12-13T05:08:34.912Z,92.65
2016-12-13T05:09:02.746Z,92.5
2016-12-13T05:09:30.601Z,92.65
2016-12-13T05:09:58.422Z,92.46
2016-12-13T05:10:26.284Z,93.04
2016-12-13T05:10:54.147Z,93.04
2016-12-13T05:11:22.022Z,93.43
2016-12-13T05:11:50.045Z,93.13
2016-12-13T05:12:17.969Z,93.43
2016-12-13T05:12:45.817Z,93.43
2016-12-13T05:13:13.646Z,92.94
2016-12-13T05:13:41.700Z,93.13
2016-12-13T05:14:09.568Z,93.23
2016-12-13T05:14:37.433Z,92.94
2016-12-13T05:15:05.261Z,93.52
2016-12-13T05:15:33.139Z,92.94
2016-12-13T05:16:00.978Z,92.94
2016-12-13T05:16:28.835Z,92.85
2016-12-13T05:16:56.666Z,92.94
2016-12-13T05:17:24.472Z,93.28
2016-12-13T05:17:52.327Z,93.08
2016-12-13T05:18:20.188Z,93.23
2016-12-13T05:18:48.184Z,93.57
2016-12-13T05:19:16.112Z,93.28
2016-12-13T05:19:43.947Z,93.28
2016-12-13T05:20:11.865Z,93.43
2016-12-13T05:20:39.726Z,93.33
2016-12-13T05:21:07.570Z,93.37
2016-12-13T05:21:35.552Z,93.23
2016-12-13T05:22:03.404Z,93.13
2016-12-13T05:22:31.416Z,93.33
2016-12-13T05:22:59.238Z,93.33
2016-12-13T05:23:27.114Z,93.33
2016-12-13T05:23:55.287Z,93.13
2016-12-13T05:24:23.115Z,93.13
2016-12-13T05:24:51.002Z,93.33
2016-12-13T05:25:18.832Z,93.33
2016-12-13T05:25:46.696Z,93.13
2016-12-13T05:26:14.596Z,93.52
2016-12-13T05:26:42.443Z,93.62
2016-12-13T05:27:10.265Z,93.43
2016-12-13T05:27:38.099Z,93.04
2016-12-13T05:28:06.017Z,92.94
2016-12-13T05:28:34.038Z,92.94
2016-12-13T05:29:01.872Z,93.33
2016-12-13T05:29:29.785Z,93.04
2016-12-13T05:29:57.662Z,93.91
2016-12-13T05:30:25.509Z,93.62
2016-12-13T05:30:53.430Z,94
2016-12-13T05:31:21.289Z,93.91
2016-12-13T05:31:49.175Z,93.81
2016-12-13T05:32:17.057Z,93.71
2016-12-13T05:32:44.886Z,93.71
2016-12-13T05:33:12.900Z,93.62
2016-12-13T05:33:41.089Z,93.71
2016-12-13T05:34:08.919Z,93.81
2016-12-13T05:34:36.798Z,93.62
2016-12-13T05:35:04.656Z,93.81
2016-12-13T05:35:32.509Z,93.91
2016-12-13T05:36:00.350Z,93.23
2016-12-13T05:36:28.376Z,93.71
2016-12-13T05:36:56.197Z,93.91
2016-12-13T05:37:24.008Z,93.62
2016-12-13T05:37:51.853Z,93.52
2016-12-13T05:38:19.901Z,93.43
2016-12-13T05:38:47.959Z,93.62
2016-12-13T05:39:15.785Z,93.71
2016-12-13T05:39:43.638Z,93.52
2016-12-13T05:40:11.470Z,93.81
2016-12-13T05:40:39.300Z,93.62
2016-12-13T05:41:07.150Z,93.43
2016-12-13T05:41:34.998Z,93.52
2016-12-13T05:42:02.829Z,93.71
2016-12-13T05:42:30.684Z,93.71
2016-12-13T05:42:58.533Z,94
2016-12-13T05:43:26.399Z,93.52
2016-12-13T05:43:54.437Z,93.81
2016-12-13T05:44:22.280Z,94
2016-12-13T05:44:50.103Z,93.71
2016-12-13T05:45:18.053Z,93.62
2016-12-13T05:45:45.901Z,93.81
2016-12-13T05:46:13.761Z,93.91
2016-12-13T05:46:41.604Z,93.62
2016-12-13T05:47:09.445Z,93.71
2016-12-13T05:47:37.304Z,93.23
2016-12-13T05:48:05.155Z,93.91
2016-12-13T05:48:32.978Z,93.52
2016-12-13T05:49:01.087Z,93.13
2016-12-13T05:49:28.952Z,93.13
2016-12-13T05:49:56.787Z,93.13
2016-12-13T05:50:24.743Z,93.33
2016-12-13T05:50:52.624Z,93.71
2016-12-13T05:51:20.467Z,93.23
2016-12-13T05:51:48.352Z,93.33
2016-12-13T05:52:16.262Z,93.52
2016-12-13T05:52:44.149Z,92.94
2016-12-13T05:53:11.924Z,93.62
2016-12-13T05:53:39.839Z,93.52
2016-12-13T05:54:07.936Z,93.52
2016-12-13T05:54:35.774Z,93.43
2016-12-13T05:55:03.631Z,93.52
2016-12-13T05:55:31.512Z,93.62
2016-12-13T05:55:59.401Z,93.33
2016-12-13T05:56:27.282Z,93.43
2016-12-13T05:56:55.150Z,93.33
2016-12-13T05:57:22.996Z,93.52
2016-12-13T05:57:50.826Z,93.62
2016-12-13T05:58:18.661Z,93.33
2016-12-13T05:58:46.870Z,93.23
2016-12-13T05:59:14.707Z,93.62
2016-12-13T05:59:42.554Z,93.71
2016-12-13T06:00:10.394Z,93.91
2016-12-13T06:00:38.298Z,93.91
2016-12-13T06:01:06.096Z,92.94
2016-12-13T06:01:33.943Z,93.62